sensor_id;sensor_type;location;lat;lon;timestamp;P1;durP1;ratioP1;P2;durP2;ratioP2
17153;SDS011;8692;52.164;7.558;2023-07-30T00:00:11;2.83;;;2.00;;
17153;SDS011;8692;52.164;7.558;2023-07-30T00:02:39;4.50;;;2.40;;
17153;SDS011;8692;52.164;7.558;2023-07-30T00:05:07;3.20;;;2.03;;
17153;SDS011;8692;52.164;7.558;2023-07-30T00:07:35;3.67;;;2.40;;
17153;SDS011;8692;52.164;7.558;2023-07-30T00:10:04;4.27;;;2.43;;
17153;SDS011;8692;52.164;7.558;2023-07-30T00:12:34;5.90;;;2.60;;
17153;SDS011;8692;52.164;7.558;2023-07-30T00:15:02;2.83;;;2.40;;
17153;SDS011;8692;52.164;7.558;2023-07-30T00:17:31;2.87;;;2.13;;
17153;SDS011;8692;52.164;7.558;2023-07-30T00:19:59;4.10;;;2.23;;
17153;SDS011;8692;52.164;7.558;2023-07-30T00:22:27;2.50;;;1.97;;
17153;SDS011;8692;52.164;7.558;2023-07-30T00:24:54;3.17;;;1.90;;
17153;SDS011;8692;52.164;7.558;2023-07-30T00:27:22;2.80;;;2.13;;
17153;SDS011;8692;52.164;7.558;2023-07-30T00:29:52;3.50;;;2.27;;
17153;SDS011;8692;52.164;7.558;2023-07-30T00:32:20;2.60;;;2.10;;
17153;SDS011;8692;52.164;7.558;2023-07-30T00:34:48;3.47;;;2.20;;
17153;SDS011;8692;52.164;7.558;2023-07-30T00:37:16;2.20;;;1.97;;
17153;SDS011;8692;52.164;7.558;2023-07-30T00:39:44;2.60;;;2.03;;
17153;SDS011;8692;52.164;7.558;2023-07-30T00:42:12;2.87;;;2.17;;
17153;SDS011;8692;52.164;7.558;2023-07-30T00:44:40;3.00;;;2.40;;
17153;SDS011;8692;52.164;7.558;2023-07-30T00:47:10;3.10;;;2.50;;
17153;SDS011;8692;52.164;7.558;2023-07-30T00:49:39;3.93;;;2.50;;
17153;SDS011;8692;52.164;7.558;2023-07-30T00:52:07;3.60;;;2.30;;
17153;SDS011;8692;52.164;7.558;2023-07-30T00:54:35;3.93;;;2.13;;
17153;SDS011;8692;52.164;7.558;2023-07-30T00:57:04;2.70;;;2.30;;
17153;SDS011;8692;52.164;7.558;2023-07-30T00:59:33;2.40;;;2.20;;
17153;SDS011;8692;52.164;7.558;2023-07-30T01:02:01;4.50;;;2.07;;
17153;SDS011;8692;52.164;7.558;2023-07-30T01:04:32;4.00;;;2.80;;
17153;SDS011;8692;52.164;7.558;2023-07-30T01:07:00;4.67;;;2.40;;
17153;SDS011;8692;52.164;7.558;2023-07-30T01:09:28;4.73;;;2.40;;
17153;SDS011;8692;52.164;7.558;2023-07-30T01:11:56;4.57;;;2.43;;
17153;SDS011;8692;52.164;7.558;2023-07-30T01:14:25;4.60;;;2.73;;
17153;SDS011;8692;52.164;7.558;2023-07-30T01:16:53;3.17;;;2.40;;
17153;SDS011;8692;52.164;7.558;2023-07-30T01:19:21;3.97;;;2.30;;
17153;SDS011;8692;52.164;7.558;2023-07-30T01:21:51;3.20;;;2.43;;
17153;SDS011;8692;52.164;7.558;2023-07-30T01:24:18;3.27;;;2.50;;
17153;SDS011;8692;52.164;7.558;2023-07-30T01:26:48;3.23;;;2.10;;
17153;SDS011;8692;52.164;7.558;2023-07-30T01:29:22;3.30;;;2.07;;
17153;SDS011;8692;52.164;7.558;2023-07-30T01:31:56;3.87;;;2.73;;
17153;SDS011;8692;52.164;7.558;2023-07-30T01:34:25;3.43;;;2.17;;
17153;SDS011;8692;52.164;7.558;2023-07-30T01:36:56;3.33;;;2.67;;
17153;SDS011;8692;52.164;7.558;2023-07-30T01:39:25;4.73;;;2.57;;
17153;SDS011;8692;52.164;7.558;2023-07-30T01:41:53;2.87;;;2.03;;
17153;SDS011;8692;52.164;7.558;2023-07-30T01:44:21;4.43;;;2.63;;
17153;SDS011;8692;52.164;7.558;2023-07-30T01:46:49;2.60;;;2.40;;
17153;SDS011;8692;52.164;7.558;2023-07-30T01:49:17;3.30;;;2.47;;
17153;SDS011;8692;52.164;7.558;2023-07-30T01:51:45;3.70;;;2.37;;
17153;SDS011;8692;52.164;7.558;2023-07-30T01:54:14;3.30;;;2.70;;
17153;SDS011;8692;52.164;7.558;2023-07-30T01:56:42;4.13;;;2.70;;
17153;SDS011;8692;52.164;7.558;2023-07-30T01:59:10;5.13;;;2.87;;
17153;SDS011;8692;52.164;7.558;2023-07-30T02:01:39;4.37;;;2.60;;
17153;SDS011;8692;52.164;7.558;2023-07-30T02:04:08;3.63;;;2.77;;
17153;SDS011;8692;52.164;7.558;2023-07-30T02:06:36;4.13;;;2.90;;
17153;SDS011;8692;52.164;7.558;2023-07-30T02:09:04;3.83;;;2.70;;
17153;SDS011;8692;52.164;7.558;2023-07-30T02:11:33;3.83;;;2.53;;
17153;SDS011;8692;52.164;7.558;2023-07-30T02:14:01;6.67;;;3.33;;
17153;SDS011;8692;52.164;7.558;2023-07-30T02:16:30;4.53;;;2.67;;
17153;SDS011;8692;52.164;7.558;2023-07-30T02:18:58;4.20;;;2.77;;
17153;SDS011;8692;52.164;7.558;2023-07-30T02:21:26;3.70;;;2.73;;
17153;SDS011;8692;52.164;7.558;2023-07-30T02:23:54;3.57;;;2.40;;
17153;SDS011;8692;52.164;7.558;2023-07-30T02:26:22;4.27;;;2.83;;
17153;SDS011;8692;52.164;7.558;2023-07-30T02:28:51;9.17;;;3.30;;
17153;SDS011;8692;52.164;7.558;2023-07-30T02:31:19;3.33;;;2.60;;
17153;SDS011;8692;52.164;7.558;2023-07-30T02:33:47;4.63;;;2.37;;
17153;SDS011;8692;52.164;7.558;2023-07-30T02:36:15;4.10;;;2.70;;
17153;SDS011;8692;52.164;7.558;2023-07-30T02:38:43;3.60;;;2.50;;
17153;SDS011;8692;52.164;7.558;2023-07-30T02:41:11;4.17;;;2.37;;
17153;SDS011;8692;52.164;7.558;2023-07-30T02:43:39;4.33;;;2.80;;
17153;SDS011;8692;52.164;7.558;2023-07-30T02:46:08;4.43;;;3.37;;
17153;SDS011;8692;52.164;7.558;2023-07-30T02:48:37;3.50;;;2.90;;
17153;SDS011;8692;52.164;7.558;2023-07-30T02:51:05;4.50;;;3.13;;
17153;SDS011;8692;52.164;7.558;2023-07-30T02:53:33;6.10;;;3.60;;
17153;SDS011;8692;52.164;7.558;2023-07-30T02:56:01;4.53;;;2.97;;
17153;SDS011;8692;52.164;7.558;2023-07-30T02:58:29;6.83;;;3.63;;
17153;SDS011;8692;52.164;7.558;2023-07-30T03:01:04;8.43;;;3.33;;
17153;SDS011;8692;52.164;7.558;2023-07-30T03:03:34;4.37;;;2.70;;
17153;SDS011;8692;52.164;7.558;2023-07-30T03:06:03;4.93;;;2.90;;
17153;SDS011;8692;52.164;7.558;2023-07-30T03:08:30;7.60;;;3.20;;
17153;SDS011;8692;52.164;7.558;2023-07-30T03:10:58;6.27;;;3.10;;
17153;SDS011;8692;52.164;7.558;2023-07-30T03:13:26;5.97;;;3.20;;
17153;SDS011;8692;52.164;7.558;2023-07-30T03:15:54;6.83;;;3.30;;
17153;SDS011;8692;52.164;7.558;2023-07-30T03:18:22;7.17;;;3.20;;
17153;SDS011;8692;52.164;7.558;2023-07-30T03:20:57;6.33;;;3.23;;
17153;SDS011;8692;52.164;7.558;2023-07-30T03:23:26;6.93;;;3.03;;
17153;SDS011;8692;52.164;7.558;2023-07-30T03:25:54;4.57;;;2.47;;
17153;SDS011;8692;52.164;7.558;2023-07-30T03:28:22;8.80;;;3.17;;
17153;SDS011;8692;52.164;7.558;2023-07-30T03:30:50;6.40;;;2.83;;
17153;SDS011;8692;52.164;7.558;2023-07-30T03:33:19;4.30;;;2.43;;
17153;SDS011;8692;52.164;7.558;2023-07-30T03:35:49;7.20;;;3.30;;
17153;SDS011;8692;52.164;7.558;2023-07-30T03:38:19;4.57;;;2.60;;
17153;SDS011;8692;52.164;7.558;2023-07-30T03:40:46;4.60;;;2.80;;
17153;SDS011;8692;52.164;7.558;2023-07-30T03:43:14;3.33;;;3.00;;
17153;SDS011;8692;52.164;7.558;2023-07-30T03:45:43;8.13;;;3.20;;
17153;SDS011;8692;52.164;7.558;2023-07-30T03:48:11;8.47;;;3.20;;
17153;SDS011;8692;52.164;7.558;2023-07-30T03:50:39;7.43;;;3.00;;
17153;SDS011;8692;52.164;7.558;2023-07-30T03:53:08;7.20;;;2.73;;
17153;SDS011;8692;52.164;7.558;2023-07-30T03:55:36;3.93;;;2.50;;
17153;SDS011;8692;52.164;7.558;2023-07-30T03:58:04;5.80;;;2.70;;
17153;SDS011;8692;52.164;7.558;2023-07-30T04:00:32;6.23;;;2.87;;
17153;SDS011;8692;52.164;7.558;2023-07-30T04:03:01;4.43;;;2.60;;
17153;SDS011;8692;52.164;7.558;2023-07-30T04:05:29;5.60;;;3.23;;
17153;SDS011;8692;52.164;7.558;2023-07-30T04:07:57;5.63;;;2.90;;
17153;SDS011;8692;52.164;7.558;2023-07-30T04:10:26;5.70;;;2.83;;
17153;SDS011;8692;52.164;7.558;2023-07-30T04:12:55;6.77;;;2.60;;
17153;SDS011;8692;52.164;7.558;2023-07-30T04:15:23;6.07;;;3.10;;
17153;SDS011;8692;52.164;7.558;2023-07-30T04:17:50;5.63;;;3.10;;
17153;SDS011;8692;52.164;7.558;2023-07-30T04:20:18;4.47;;;2.37;;
17153;SDS011;8692;52.164;7.558;2023-07-30T04:22:46;3.60;;;2.57;;
17153;SDS011;8692;52.164;7.558;2023-07-30T04:25:14;3.80;;;2.20;;
17153;SDS011;8692;52.164;7.558;2023-07-30T04:27:44;7.53;;;2.93;;
17153;SDS011;8692;52.164;7.558;2023-07-30T04:30:12;4.90;;;2.53;;
17153;SDS011;8692;52.164;7.558;2023-07-30T04:32:40;9.80;;;3.33;;
17153;SDS011;8692;52.164;7.558;2023-07-30T04:35:08;6.20;;;3.07;;
17153;SDS011;8692;52.164;7.558;2023-07-30T04:37:38;7.47;;;2.73;;
17153;SDS011;8692;52.164;7.558;2023-07-30T04:40:07;7.57;;;2.90;;
17153;SDS011;8692;52.164;7.558;2023-07-30T04:42:36;10.57;;;2.90;;
17153;SDS011;8692;52.164;7.558;2023-07-30T04:45:06;6.83;;;3.10;;
17153;SDS011;8692;52.164;7.558;2023-07-30T04:47:38;8.77;;;3.43;;
17153;SDS011;8692;52.164;7.558;2023-07-30T04:50:06;4.97;;;2.90;;
17153;SDS011;8692;52.164;7.558;2023-07-30T04:52:34;5.87;;;2.53;;
17153;SDS011;8692;52.164;7.558;2023-07-30T04:55:02;7.83;;;2.70;;
17153;SDS011;8692;52.164;7.558;2023-07-30T04:57:31;7.20;;;3.20;;
17153;SDS011;8692;52.164;7.558;2023-07-30T04:59:59;11.23;;;3.33;;
17153;SDS011;8692;52.164;7.558;2023-07-30T05:02:29;8.53;;;3.63;;
17153;SDS011;8692;52.164;7.558;2023-07-30T05:04:57;7.27;;;3.37;;
17153;SDS011;8692;52.164;7.558;2023-07-30T05:07:25;7.07;;;3.00;;
17153;SDS011;8692;52.164;7.558;2023-07-30T05:09:53;7.83;;;3.50;;
17153;SDS011;8692;52.164;7.558;2023-07-30T05:12:21;10.40;;;3.63;;
17153;SDS011;8692;52.164;7.558;2023-07-30T05:14:49;7.70;;;3.80;;
17153;SDS011;8692;52.164;7.558;2023-07-30T05:17:17;6.13;;;3.20;;
17153;SDS011;8692;52.164;7.558;2023-07-30T05:19:47;9.57;;;3.50;;
17153;SDS011;8692;52.164;7.558;2023-07-30T05:22:15;7.43;;;3.40;;
17153;SDS011;8692;52.164;7.558;2023-07-30T05:24:43;9.77;;;4.53;;
17153;SDS011;8692;52.164;7.558;2023-07-30T05:27:11;11.43;;;4.30;;
17153;SDS011;8692;52.164;7.558;2023-07-30T05:29:38;10.20;;;4.30;;
17153;SDS011;8692;52.164;7.558;2023-07-30T05:32:07;8.50;;;3.70;;
17153;SDS011;8692;52.164;7.558;2023-07-30T05:34:35;12.23;;;3.93;;
17153;SDS011;8692;52.164;7.558;2023-07-30T05:37:04;11.43;;;4.63;;
17153;SDS011;8692;52.164;7.558;2023-07-30T05:39:32;10.37;;;4.57;;
17153;SDS011;8692;52.164;7.558;2023-07-30T05:42:00;13.17;;;4.97;;
17153;SDS011;8692;52.164;7.558;2023-07-30T05:44:28;12.50;;;5.43;;
17153;SDS011;8692;52.164;7.558;2023-07-30T05:46:56;14.20;;;5.13;;
17153;SDS011;8692;52.164;7.558;2023-07-30T05:49:24;13.10;;;5.57;;
17153;SDS011;8692;52.164;7.558;2023-07-30T05:51:52;9.37;;;5.80;;
17153;SDS011;8692;52.164;7.558;2023-07-30T05:54:21;10.60;;;6.27;;
17153;SDS011;8692;52.164;7.558;2023-07-30T05:56:49;11.73;;;5.83;;
17153;SDS011;8692;52.164;7.558;2023-07-30T05:59:17;13.07;;;6.90;;
17153;SDS011;8692;52.164;7.558;2023-07-30T06:01:48;14.63;;;7.47;;
17153;SDS011;8692;52.164;7.558;2023-07-30T06:04:16;15.93;;;7.80;;
17153;SDS011;8692;52.164;7.558;2023-07-30T06:06:44;17.37;;;8.03;;
17153;SDS011;8692;52.164;7.558;2023-07-30T06:09:12;13.67;;;7.43;;
17153;SDS011;8692;52.164;7.558;2023-07-30T06:11:42;16.43;;;7.67;;
17153;SDS011;8692;52.164;7.558;2023-07-30T06:14:10;20.27;;;8.57;;
17153;SDS011;8692;52.164;7.558;2023-07-30T06:16:38;17.20;;;8.33;;
17153;SDS011;8692;52.164;7.558;2023-07-30T06:19:06;21.27;;;8.80;;
17153;SDS011;8692;52.164;7.558;2023-07-30T06:21:34;16.57;;;8.50;;
17153;SDS011;8692;52.164;7.558;2023-07-30T06:24:02;22.20;;;8.33;;
17153;SDS011;8692;52.164;7.558;2023-07-30T06:26:31;23.57;;;9.77;;
17153;SDS011;8692;52.164;7.558;2023-07-30T06:29:00;17.47;;;8.03;;
17153;SDS011;8692;52.164;7.558;2023-07-30T06:31:28;15.37;;;8.70;;
17153;SDS011;8692;52.164;7.558;2023-07-30T06:33:56;17.27;;;8.63;;
17153;SDS011;8692;52.164;7.558;2023-07-30T06:36:24;16.30;;;8.97;;
17153;SDS011;8692;52.164;7.558;2023-07-30T06:38:52;18.13;;;8.80;;
17153;SDS011;8692;52.164;7.558;2023-07-30T06:41:20;18.10;;;9.37;;
17153;SDS011;8692;52.164;7.558;2023-07-30T06:43:48;22.07;;;9.40;;
17153;SDS011;8692;52.164;7.558;2023-07-30T06:46:18;16.77;;;8.80;;
17153;SDS011;8692;52.164;7.558;2023-07-30T06:48:46;23.20;;;9.60;;
17153;SDS011;8692;52.164;7.558;2023-07-30T06:51:14;22.50;;;10.73;;
17153;SDS011;8692;52.164;7.558;2023-07-30T06:53:42;20.85;;;10.77;;
17153;SDS011;8692;52.164;7.558;2023-07-30T06:56:10;19.73;;;10.20;;
17153;SDS011;8692;52.164;7.558;2023-07-30T06:58:38;20.33;;;9.77;;
17153;SDS011;8692;52.164;7.558;2023-07-30T07:01:06;18.23;;;9.80;;
17153;SDS011;8692;52.164;7.558;2023-07-30T07:03:35;18.03;;;9.13;;
17153;SDS011;8692;52.164;7.558;2023-07-30T07:06:03;18.57;;;10.57;;
17153;SDS011;8692;52.164;7.558;2023-07-30T07:08:31;15.30;;;8.67;;
17153;SDS011;8692;52.164;7.558;2023-07-30T07:10:59;14.43;;;9.10;;
17153;SDS011;8692;52.164;7.558;2023-07-30T07:13:27;22.13;;;9.67;;
17153;SDS011;8692;52.164;7.558;2023-07-30T07:15:55;20.50;;;9.60;;
17153;SDS011;8692;52.164;7.558;2023-07-30T07:18:23;20.43;;;9.50;;
17153;SDS011;8692;52.164;7.558;2023-07-30T07:20:52;17.50;;;9.80;;
17153;SDS011;8692;52.164;7.558;2023-07-30T07:23:20;14.50;;;9.03;;
17153;SDS011;8692;52.164;7.558;2023-07-30T07:25:48;19.63;;;8.97;;
17153;SDS011;8692;52.164;7.558;2023-07-30T07:28:16;18.63;;;8.47;;
17153;SDS011;8692;52.164;7.558;2023-07-30T07:30:45;16.70;;;8.60;;
17153;SDS011;8692;52.164;7.558;2023-07-30T07:33:15;16.80;;;8.77;;
17153;SDS011;8692;52.164;7.558;2023-07-30T07:35:43;14.67;;;8.67;;
17153;SDS011;8692;52.164;7.558;2023-07-30T07:38:12;17.27;;;8.90;;
17153;SDS011;8692;52.164;7.558;2023-07-30T07:40:41;15.83;;;9.33;;
17153;SDS011;8692;52.164;7.558;2023-07-30T07:43:09;19.50;;;8.60;;
17153;SDS011;8692;52.164;7.558;2023-07-30T07:45:37;16.53;;;8.33;;
17153;SDS011;8692;52.164;7.558;2023-07-30T07:48:05;13.87;;;7.63;;
17153;SDS011;8692;52.164;7.558;2023-07-30T07:50:33;12.47;;;7.67;;
17153;SDS011;8692;52.164;7.558;2023-07-30T07:53:01;14.20;;;8.67;;
17153;SDS011;8692;52.164;7.558;2023-07-30T07:55:30;19.27;;;9.30;;
17153;SDS011;8692;52.164;7.558;2023-07-30T07:57:59;16.93;;;9.03;;
17153;SDS011;8692;52.164;7.558;2023-07-30T08:00:27;16.70;;;9.85;;
17153;SDS011;8692;52.164;7.558;2023-07-30T08:02:55;20.20;;;9.88;;
17153;SDS011;8692;52.164;7.558;2023-07-30T08:05:23;20.93;;;9.07;;
17153;SDS011;8692;52.164;7.558;2023-07-30T08:07:51;19.53;;;8.70;;
17153;SDS011;8692;52.164;7.558;2023-07-30T08:10:20;14.40;;;8.77;;
17153;SDS011;8692;52.164;7.558;2023-07-30T08:12:49;17.57;;;8.77;;
17153;SDS011;8692;52.164;7.558;2023-07-30T08:15:17;16.67;;;7.97;;
17153;SDS011;8692;52.164;7.558;2023-07-30T08:17:46;15.67;;;9.10;;
17153;SDS011;8692;52.164;7.558;2023-07-30T08:20:14;21.80;;;9.43;;
17153;SDS011;8692;52.164;7.558;2023-07-30T08:22:42;16.60;;;8.70;;
17153;SDS011;8692;52.164;7.558;2023-07-30T08:25:10;20.13;;;8.43;;
17153;SDS011;8692;52.164;7.558;2023-07-30T08:27:38;18.23;;;8.33;;
17153;SDS011;8692;52.164;7.558;2023-07-30T08:30:08;18.90;;;8.67;;
17153;SDS011;8692;52.164;7.558;2023-07-30T08:32:36;18.00;;;7.90;;
17153;SDS011;8692;52.164;7.558;2023-07-30T08:35:06;17.37;;;8.50;;
17153;SDS011;8692;52.164;7.558;2023-07-30T08:37:35;14.30;;;8.67;;
17153;SDS011;8692;52.164;7.558;2023-07-30T08:40:03;17.40;;;9.17;;
17153;SDS011;8692;52.164;7.558;2023-07-30T08:42:32;14.30;;;8.77;;
17153;SDS011;8692;52.164;7.558;2023-07-30T08:45:00;17.23;;;7.83;;
17153;SDS011;8692;52.164;7.558;2023-07-30T08:47:32;19.97;;;8.53;;
17153;SDS011;8692;52.164;7.558;2023-07-30T08:50:00;20.50;;;8.20;;
17153;SDS011;8692;52.164;7.558;2023-07-30T08:52:28;16.47;;;8.47;;
17153;SDS011;8692;52.164;7.558;2023-07-30T08:54:57;17.80;;;8.03;;
17153;SDS011;8692;52.164;7.558;2023-07-30T08:57:28;17.30;;;8.40;;
17153;SDS011;8692;52.164;7.558;2023-07-30T08:59:59;14.13;;;8.03;;
17153;SDS011;8692;52.164;7.558;2023-07-30T09:02:33;20.87;;;8.50;;
17153;SDS011;8692;52.164;7.558;2023-07-30T09:05:04;18.03;;;9.27;;
17153;SDS011;8692;52.164;7.558;2023-07-30T09:07:38;17.47;;;8.37;;
17153;SDS011;8692;52.164;7.558;2023-07-30T09:10:06;15.73;;;7.43;;
17153;SDS011;8692;52.164;7.558;2023-07-30T09:12:35;17.57;;;7.30;;
17153;SDS011;8692;52.164;7.558;2023-07-30T09:15:03;15.33;;;7.30;;
17153;SDS011;8692;52.164;7.558;2023-07-30T09:17:34;15.33;;;7.60;;
17153;SDS011;8692;52.164;7.558;2023-07-30T09:20:03;16.23;;;8.23;;
17153;SDS011;8692;52.164;7.558;2023-07-30T09:22:32;16.97;;;7.90;;
17153;SDS011;8692;52.164;7.558;2023-07-30T09:25:03;18.90;;;8.03;;
17153;SDS011;8692;52.164;7.558;2023-07-30T09:27:31;18.17;;;7.30;;
17153;SDS011;8692;52.164;7.558;2023-07-30T09:30:00;15.43;;;6.80;;
17153;SDS011;8692;52.164;7.558;2023-07-30T09:32:32;12.33;;;6.43;;
17153;SDS011;8692;52.164;7.558;2023-07-30T09:35:06;11.37;;;5.57;;
17153;SDS011;8692;52.164;7.558;2023-07-30T09:37:36;16.60;;;6.50;;
17153;SDS011;8692;52.164;7.558;2023-07-30T09:40:06;11.60;;;6.60;;
17153;SDS011;8692;52.164;7.558;2023-07-30T09:42:35;16.23;;;6.10;;
17153;SDS011;8692;52.164;7.558;2023-07-30T09:45:06;11.63;;;5.20;;
17153;SDS011;8692;52.164;7.558;2023-07-30T09:47:37;9.63;;;5.07;;
17153;SDS011;8692;52.164;7.558;2023-07-30T09:50:06;12.27;;;5.00;;
17153;SDS011;8692;52.164;7.558;2023-07-30T09:52:35;14.93;;;4.70;;
17153;SDS011;8692;52.164;7.558;2023-07-30T09:55:03;11.20;;;4.50;;
17153;SDS011;8692;52.164;7.558;2023-07-30T09:57:34;10.47;;;4.57;;
17153;SDS011;8692;52.164;7.558;2023-07-30T10:00:02;10.50;;;4.10;;
17153;SDS011;8692;52.164;7.558;2023-07-30T10:02:33;10.57;;;3.30;;
17153;SDS011;8692;52.164;7.558;2023-07-30T10:05:08;10.03;;;3.40;;
17153;SDS011;8692;52.164;7.558;2023-07-30T10:07:40;7.90;;;3.50;;
17153;SDS011;8692;52.164;7.558;2023-07-30T10:10:11;7.97;;;3.10;;
17153;SDS011;8692;52.164;7.558;2023-07-30T10:12:40;8.93;;;3.47;;
17153;SDS011;8692;52.164;7.558;2023-07-30T10:15:10;8.17;;;3.00;;
17153;SDS011;8692;52.164;7.558;2023-07-30T10:17:39;6.43;;;3.27;;
17153;SDS011;8692;52.164;7.558;2023-07-30T10:20:20;6.77;;;3.23;;
17153;SDS011;8692;52.164;7.558;2023-07-30T10:22:53;6.83;;;3.10;;
17153;SDS011;8692;52.164;7.558;2023-07-30T10:25:22;7.13;;;2.53;;
17153;SDS011;8692;52.164;7.558;2023-07-30T10:27:53;9.70;;;2.83;;
17153;SDS011;8692;52.164;7.558;2023-07-30T10:30:27;8.60;;;3.23;;
17153;SDS011;8692;52.164;7.558;2023-07-30T10:33:00;9.07;;;2.43;;
17153;SDS011;8692;52.164;7.558;2023-07-30T10:35:36;4.93;;;2.10;;
17153;SDS011;8692;52.164;7.558;2023-07-30T10:38:14;7.90;;;2.23;;
17153;SDS011;8692;52.164;7.558;2023-07-30T10:41:00;6.57;;;2.10;;
17153;SDS011;8692;52.164;7.558;2023-07-30T10:43:29;7.13;;;2.53;;
17153;SDS011;8692;52.164;7.558;2023-07-30T10:45:58;8.50;;;2.30;;
17153;SDS011;8692;52.164;7.558;2023-07-30T10:48:30;8.27;;;2.33;;
17153;SDS011;8692;52.164;7.558;2023-07-30T10:51:00;6.87;;;2.47;;
17153;SDS011;8692;52.164;7.558;2023-07-30T10:53:29;5.53;;;2.27;;
17153;SDS011;8692;52.164;7.558;2023-07-30T10:55:57;9.07;;;2.23;;
17153;SDS011;8692;52.164;7.558;2023-07-30T10:58:28;5.27;;;2.13;;
17153;SDS011;8692;52.164;7.558;2023-07-30T11:00:57;5.13;;;1.90;;
17153;SDS011;8692;52.164;7.558;2023-07-30T11:03:26;5.70;;;1.97;;
17153;SDS011;8692;52.164;7.558;2023-07-30T11:05:56;6.37;;;2.40;;
17153;SDS011;8692;52.164;7.558;2023-07-30T11:08:31;7.73;;;2.80;;
17153;SDS011;8692;52.164;7.558;2023-07-30T11:11:00;5.83;;;1.73;;
17153;SDS011;8692;52.164;7.558;2023-07-30T11:13:28;7.37;;;2.07;;
17153;SDS011;8692;52.164;7.558;2023-07-30T11:15:56;5.50;;;1.87;;
17153;SDS011;8692;52.164;7.558;2023-07-30T11:18:25;6.03;;;1.80;;
17153;SDS011;8692;52.164;7.558;2023-07-30T11:21:03;5.33;;;2.17;;
17153;SDS011;8692;52.164;7.558;2023-07-30T11:23:32;7.80;;;2.10;;
17153;SDS011;8692;52.164;7.558;2023-07-30T11:26:01;8.67;;;2.30;;
17153;SDS011;8692;52.164;7.558;2023-07-30T11:28:30;10.13;;;2.37;;
17153;SDS011;8692;52.164;7.558;2023-07-30T11:31:04;5.73;;;2.17;;
17153;SDS011;8692;52.164;7.558;2023-07-30T11:33:33;5.77;;;1.90;;
17153;SDS011;8692;52.164;7.558;2023-07-30T11:36:04;8.90;;;1.77;;
17153;SDS011;8692;52.164;7.558;2023-07-30T11:38:33;7.97;;;1.83;;
17153;SDS011;8692;52.164;7.558;2023-07-30T11:41:02;8.33;;;2.50;;
17153;SDS011;8692;52.164;7.558;2023-07-30T11:43:31;9.60;;;2.30;;
17153;SDS011;8692;52.164;7.558;2023-07-30T11:46:06;5.60;;;1.97;;
17153;SDS011;8692;52.164;7.558;2023-07-30T11:48:35;5.50;;;1.77;;
17153;SDS011;8692;52.164;7.558;2023-07-30T11:51:04;6.83;;;2.23;;
17153;SDS011;8692;52.164;7.558;2023-07-30T11:53:45;7.13;;;2.23;;
17153;SDS011;8692;52.164;7.558;2023-07-30T11:56:16;6.03;;;2.37;;
17153;SDS011;8692;52.164;7.558;2023-07-30T11:58:46;7.73;;;2.37;;
17153;SDS011;8692;52.164;7.558;2023-07-30T12:01:14;5.03;;;1.70;;
17153;SDS011;8692;52.164;7.558;2023-07-30T12:03:43;6.93;;;1.90;;
17153;SDS011;8692;52.164;7.558;2023-07-30T12:06:13;7.90;;;2.20;;
17153;SDS011;8692;52.164;7.558;2023-07-30T12:08:41;9.20;;;2.10;;
17153;SDS011;8692;52.164;7.558;2023-07-30T12:11:09;7.00;;;2.07;;
17153;SDS011;8692;52.164;7.558;2023-07-30T12:13:44;4.90;;;2.00;;
17153;SDS011;8692;52.164;7.558;2023-07-30T12:16:13;5.43;;;1.93;;
17153;SDS011;8692;52.164;7.558;2023-07-30T12:18:45;4.70;;;1.97;;
17153;SDS011;8692;52.164;7.558;2023-07-30T12:21:14;5.47;;;1.80;;
17153;SDS011;8692;52.164;7.558;2023-07-30T12:23:42;4.63;;;1.40;;
17153;SDS011;8692;52.164;7.558;2023-07-30T12:26:10;4.27;;;1.80;;
17153;SDS011;8692;52.164;7.558;2023-07-30T12:28:38;4.23;;;1.43;;
17153;SDS011;8692;52.164;7.558;2023-07-30T12:31:06;4.37;;;1.50;;
17153;SDS011;8692;52.164;7.558;2023-07-30T12:33:34;8.73;;;2.37;;
17153;SDS011;8692;52.164;7.558;2023-07-30T12:36:02;3.50;;;1.40;;
17153;SDS011;8692;52.164;7.558;2023-07-30T12:38:31;5.67;;;1.93;;
17153;SDS011;8692;52.164;7.558;2023-07-30T12:41:00;6.23;;;1.90;;
17153;SDS011;8692;52.164;7.558;2023-07-30T12:43:28;5.20;;;1.90;;
17153;SDS011;8692;52.164;7.558;2023-07-30T12:45:56;4.30;;;1.60;;
17153;SDS011;8692;52.164;7.558;2023-07-30T12:48:24;4.50;;;1.70;;
17153;SDS011;8692;52.164;7.558;2023-07-30T12:50:52;9.07;;;2.07;;
17153;SDS011;8692;52.164;7.558;2023-07-30T12:53:23;3.93;;;1.53;;
17153;SDS011;8692;52.164;7.558;2023-07-30T12:55:53;4.93;;;1.40;;
17153;SDS011;8692;52.164;7.558;2023-07-30T12:58:21;4.43;;;1.60;;
17153;SDS011;8692;52.164;7.558;2023-07-30T13:00:49;5.73;;;1.50;;
17153;SDS011;8692;52.164;7.558;2023-07-30T13:03:17;2.53;;;1.10;;
17153;SDS011;8692;52.164;7.558;2023-07-30T13:05:45;2.67;;;1.10;;
17153;SDS011;8692;52.164;7.558;2023-07-30T13:08:13;3.47;;;1.07;;
17153;SDS011;8692;52.164;7.558;2023-07-30T13:10:41;3.97;;;1.03;;
17153;SDS011;8692;52.164;7.558;2023-07-30T13:13:10;4.63;;;1.40;;
17153;SDS011;8692;52.164;7.558;2023-07-30T13:15:38;2.30;;;1.03;;
17153;SDS011;8692;52.164;7.558;2023-07-30T13:18:06;3.10;;;1.00;;
17153;SDS011;8692;52.164;7.558;2023-07-30T13:20:34;3.53;;;1.10;;
17153;SDS011;8692;52.164;7.558;2023-07-30T13:23:02;6.17;;;1.43;;
17153;SDS011;8692;52.164;7.558;2023-07-30T13:25:30;2.17;;;0.97;;
17153;SDS011;8692;52.164;7.558;2023-07-30T13:27:59;5.00;;;1.20;;
17153;SDS011;8692;52.164;7.558;2023-07-30T13:30:28;3.60;;;1.33;;
17153;SDS011;8692;52.164;7.558;2023-07-30T13:32:56;5.40;;;1.50;;
17153;SDS011;8692;52.164;7.558;2023-07-30T13:35:24;4.40;;;1.40;;
17153;SDS011;8692;52.164;7.558;2023-07-30T13:37:53;4.83;;;1.70;;
17153;SDS011;8692;52.164;7.558;2023-07-30T13:40:21;4.73;;;1.53;;
17153;SDS011;8692;52.164;7.558;2023-07-30T13:42:50;4.40;;;1.30;;
17153;SDS011;8692;52.164;7.558;2023-07-30T13:45:18;6.67;;;1.60;;
17153;SDS011;8692;52.164;7.558;2023-07-30T13:47:47;2.77;;;1.23;;
17153;SDS011;8692;52.164;7.558;2023-07-30T13:50:15;4.10;;;1.60;;
17153;SDS011;8692;52.164;7.558;2023-07-30T13:52:43;3.93;;;1.20;;
17153;SDS011;8692;52.164;7.558;2023-07-30T13:55:13;3.80;;;1.17;;
17153;SDS011;8692;52.164;7.558;2023-07-30T13:57:42;3.93;;;1.33;;
17153;SDS011;8692;52.164;7.558;2023-07-30T14:00:11;7.63;;;1.40;;
17153;SDS011;8692;52.164;7.558;2023-07-30T14:02:39;4.77;;;1.47;;
17153;SDS011;8692;52.164;7.558;2023-07-30T14:05:09;4.83;;;1.63;;
17153;SDS011;8692;52.164;7.558;2023-07-30T14:07:37;6.70;;;1.33;;
17153;SDS011;8692;52.164;7.558;2023-07-30T14:10:07;3.85;;;1.45;;
17153;SDS011;8692;52.164;7.558;2023-07-30T14:12:35;6.87;;;1.57;;
17153;SDS011;8692;52.164;7.558;2023-07-30T14:15:05;4.83;;;1.43;;
17153;SDS011;8692;52.164;7.558;2023-07-30T14:17:34;3.60;;;1.40;;
17153;SDS011;8692;52.164;7.558;2023-07-30T14:20:02;6.93;;;1.20;;
17153;SDS011;8692;52.164;7.558;2023-07-30T14:22:32;4.97;;;1.53;;
17153;SDS011;8692;52.164;7.558;2023-07-30T14:25:00;4.40;;;1.30;;
17153;SDS011;8692;52.164;7.558;2023-07-30T14:27:28;5.72;;;1.70;;
17153;SDS011;8692;52.164;7.558;2023-07-30T14:29:56;5.60;;;1.33;;
17153;SDS011;8692;52.164;7.558;2023-07-30T14:32:24;5.80;;;1.40;;
17153;SDS011;8692;52.164;7.558;2023-07-30T14:34:52;3.53;;;1.40;;
17153;SDS011;8692;52.164;7.558;2023-07-30T14:37:20;3.17;;;1.35;;
17153;SDS011;8692;52.164;7.558;2023-07-30T14:39:49;4.70;;;1.38;;
17153;SDS011;8692;52.164;7.558;2023-07-30T14:42:17;3.63;;;1.40;;
17153;SDS011;8692;52.164;7.558;2023-07-30T14:44:45;6.40;;;1.52;;
17153;SDS011;8692;52.164;7.558;2023-07-30T14:47:13;3.65;;;1.35;;
17153;SDS011;8692;52.164;7.558;2023-07-30T14:49:41;4.75;;;1.23;;
17153;SDS011;8692;52.164;7.558;2023-07-30T14:52:09;4.00;;;1.17;;
17153;SDS011;8692;52.164;7.558;2023-07-30T14:54:37;4.40;;;1.27;;
17153;SDS011;8692;52.164;7.558;2023-07-30T14:57:07;3.90;;;1.17;;
17153;SDS011;8692;52.164;7.558;2023-07-30T14:59:35;3.20;;;1.10;;
17153;SDS011;8692;52.164;7.558;2023-07-30T15:02:03;3.50;;;1.33;;
17153;SDS011;8692;52.164;7.558;2023-07-30T15:04:31;4.82;;;1.30;;
17153;SDS011;8692;52.164;7.558;2023-07-30T15:06:59;3.88;;;1.10;;